createdAt,value
2019-04-22T00:01:04.793Z,52.23
2019-04-22T00:03:39.145Z,57.90
2019-04-22T00:06:27.408Z,55.80
2019-04-22T00:08:56.034Z,56.47
2019-04-22T00:11:30.344Z,57.00
2019-04-22T00:13:56.950Z,59.07
2019-04-22T00:16:33.900Z,56.97
2019-04-22T00:21:35.313Z,57.00
2019-04-22T00:23:58.551Z,61.17
2019-04-22T00:26:28.989Z,54.60
2019-04-22T00:29:14.500Z,58.60
2019-04-22T00:31:41.676Z,59.57
2019-04-22T00:34:14.152Z,58.47
2019-04-22T00:36:43.775Z,55.70
2019-04-22T00:39:22.089Z,58.80
2019-04-22T00:41:50.547Z,58.10
2019-04-22T00:44:20.494Z,55.97
2019-04-22T00:46:46.800Z,58.00
2019-04-22T00:50:03.682Z,56.10
2019-04-22T00:51:52.632Z,59.17
2019-04-22T00:54:17.702Z,58.33
2019-04-22T00:56:47.767Z,56.80
2019-04-22T00:59:17.354Z,55.33
2019-04-22T01:01:42.990Z,56.10
2019-04-22T01:04:27.972Z,51.77
2019-04-22T01:06:45.911Z,53.43
2019-04-22T01:09:17.462Z,55.73
2019-04-22T01:11:45.371Z,56.37
2019-04-22T01:14:21.969Z,52.50
2019-04-22T01:17:00.094Z,56.40
2019-04-22T01:19:29.642Z,56.10
2019-04-22T01:22:03.072Z,53.77
2019-04-22T01:24:28.070Z,59.57
2019-04-22T01:26:53.518Z,62.43
2019-04-22T01:29:22.598Z,55.03
2019-04-22T01:31:47.396Z,56.13
2019-04-22T01:34:33.440Z,54.77
2019-04-22T01:40:00.149Z,58.87
2019-04-22T01:42:28.610Z,55.90
2019-04-22T01:44:58.184Z,48.43
2019-04-22T01:47:36.760Z,53.57
2019-04-22T01:50:10.069Z,52.27
2019-04-22T01:52:41.668Z,53.30
2019-04-22T01:57:35.272Z,50.13
2019-04-22T02:00:01.062Z,53.60
2019-04-22T02:02:44.088Z,51.37
2019-04-22T02:05:13.413Z,49.37
2019-04-22T02:07:42.390Z,49.20
2019-04-22T02:10:26.858Z,47.17
2019-04-22T02:12:45.932Z,48.87
2019-04-22T02:15:17.404Z,49.97
2019-04-22T02:18:10.657Z,48.43
2019-04-22T02:20:18.402Z,49.07
2019-04-22T02:23:40.250Z,48.00
2019-04-22T02:25:56.055Z,47.40
2019-04-22T02:28:32.513Z,49.27
2019-04-22T02:36:18.592Z,44.97
2019-04-22T02:46:22.919Z,48.23
2019-04-22T02:58:55.135Z,44.43
2019-04-22T03:01:27.523Z,43.40
2019-04-22T03:06:29.015Z,45.40
2019-04-22T03:08:45.577Z,44.80
2019-04-22T03:11:19.046Z,51.77
2019-04-22T03:26:35.074Z,43.00
2019-04-22T03:31:57.932Z,40.20
2019-04-22T03:34:57.629Z,47.07
2019-04-22T03:46:53.661Z,38.07
2019-04-22T03:59:26.928Z,42.53
2019-04-22T04:01:50.940Z,39.70
2019-04-22T04:04:32.921Z,37.13
2019-04-22T04:09:33.896Z,37.90
2019-04-22T04:12:03.572Z,35.17
2019-04-22T04:14:44.560Z,39.73
2019-04-22T04:17:14.607Z,40.90
2019-04-22T04:22:08.001Z,37.27
2019-04-22T04:27:22.806Z,35.40
2019-04-22T04:29:51.423Z,35.50
2019-04-22T04:32:24.949Z,35.50
2019-04-22T04:34:56.286Z,35.23
2019-04-22T04:37:17.881Z,35.70
2019-04-22T04:39:51.058Z,34.93
2019-04-22T04:44:59.042Z,35.13
2019-04-22T04:47:25.927Z,31.90
2019-04-22T04:49:43.575Z,33.53
2019-04-22T04:52:19.344Z,34.47
2019-04-22T04:54:51.934Z,35.10
2019-04-22T04:57:14.861Z,34.97
2019-04-22T05:00:06.008Z,36.77
2019-04-22T05:02:20.166Z,33.63
2019-04-22T05:09:47.343Z,44.10
2019-04-22T05:14:48.860Z,36.10
2019-04-22T05:17:25.514Z,33.93
2019-04-22T05:19:56.851Z,33.73
2019-04-22T05:22:23.200Z,38.77
2019-04-22T05:24:56.236Z,35.17
2019-04-22T05:27:29.450Z,30.20
2019-04-22T05:30:07.508Z,32.93
2019-04-22T05:32:24.644Z,31.40
2019-04-22T05:34:54.036Z,28.93
2019-04-22T05:39:49.674Z,29.67
2019-04-22T05:42:18.101Z,30.50
2019-04-22T05:44:54.995Z,31.07
2019-04-22T05:47:22.484Z,32.60
2019-04-22T05:49:47.734Z,38.30
2019-04-22T05:52:21.235Z,36.57
2019-04-22T05:54:55.034Z,27.80
2019-04-22T05:57:26.124Z,30.40
2019-04-22T06:00:18.330Z,28.47
2019-04-22T06:02:32.526Z,33.87
2019-04-22T06:04:59.179Z,34.90
2019-04-22T06:07:29.697Z,43.23
2019-04-22T06:10:08.375Z,36.73
2019-04-22T06:12:26.544Z,47.50
2019-04-22T06:15:03.775Z,41.53
2019-04-22T06:20:12.235Z,38.70
2019-04-22T06:22:56.789Z,37.87
2019-04-22T06:25:43.409Z,40.97
2019-04-22T06:27:42.430Z,37.63
2019-04-22T06:30:18.470Z,130.37
2019-04-22T06:32:39.810Z,243.07
2019-04-22T06:35:27.962Z,153.40
2019-04-22T06:37:55.069Z,119.07
2019-04-22T06:40:19.817Z,99.40
2019-04-22T06:42:51.911Z,49.97
2019-04-22T06:45:21.892Z,40.57
2019-04-22T06:50:30.285Z,27.07
2019-04-22T06:52:48.078Z,29.90
2019-04-22T06:55:24.847Z,25.93
2019-04-22T06:57:43.634Z,25.30
2019-04-22T07:03:27.148Z,21.70
2019-04-22T07:05:28.507Z,24.50
2019-04-22T07:08:05.588Z,22.10
2019-04-22T07:12:54.266Z,20.03
2019-04-22T07:15:42.392Z,24.10
2019-04-22T07:18:04.251Z,23.33
2019-04-22T07:20:30.548Z,17.43
2019-04-22T07:23:06.776Z,23.90
2019-04-22T07:25:29.537Z,20.87
2019-04-22T07:27:58.553Z,17.63
2019-04-22T07:30:31.307Z,20.67
2019-04-22T07:35:44.376Z,17.43
2019-04-22T07:38:14.349Z,23.10
2019-04-22T07:40:40.546Z,15.63
2019-04-22T07:43:04.401Z,18.63
2019-04-22T07:45:40.852Z,16.40
2019-04-22T07:48:18.888Z,15.23
2019-04-22T07:50:49.331Z,17.43
2019-04-22T07:53:08.370Z,20.90
2019-04-22T07:55:39.852Z,14.07
2019-04-22T07:58:11.838Z,11.73
2019-04-22T08:00:39.028Z,14.73
2019-04-22T08:03:19.462Z,14.07
2019-04-22T08:05:51.911Z,9.70
2019-04-22T08:08:21.491Z,11.53
2019-04-22T08:10:48.499Z,12.80
2019-04-22T08:13:11.676Z,13.87
2019-04-22T08:15:48.581Z,11.47
2019-04-22T08:18:22.168Z,13.40
2019-04-22T08:20:52.824Z,16.30
2019-04-22T08:23:16.349Z,10.30
2019-04-22T08:25:44.231Z,11.03
2019-04-22T08:28:19.034Z,10.90
2019-04-22T08:30:54.839Z,9.63
2019-04-22T08:33:22.115Z,11.67
2019-04-22T08:36:07.211Z,11.33
2019-04-22T08:38:36.751Z,13.73
2019-04-22T08:44:02.331Z,8.67
2019-04-22T08:46:34.111Z,9.97
2019-04-22T08:51:30.999Z,8.33
2019-04-22T08:59:28.397Z,12.10
2019-04-22T09:02:02.794Z,9.60
2019-04-22T09:04:27.855Z,8.37
2019-04-22T09:07:20.293Z,12.33
2019-04-22T09:09:37.911Z,10.77
2019-04-22T09:12:08.223Z,10.83
2019-04-22T09:14:37.941Z,11.00
2019-04-22T09:17:13.356Z,13.47
2019-04-22T09:19:34.052Z,12.60
2019-04-22T09:24:38.722Z,9.53
2019-04-22T09:27:11.555Z,9.97
2019-04-22T09:30:01.676Z,10.50
2019-04-22T09:32:36.324Z,12.10
2019-04-22T09:34:58.919Z,15.05
2019-04-22T09:37:34.604Z,10.77
2019-04-22T09:40:09.189Z,11.53
2019-04-22T09:42:32.285Z,11.43
2019-04-22T09:44:59.193Z,11.30
2019-04-22T09:47:36.827Z,23.23
2019-04-22T09:50:03.693Z,10.90
2019-04-22T09:52:28.021Z,13.47
2019-04-22T09:55:09.563Z,12.40
2019-04-22T09:57:31.507Z,13.22
2019-04-22T10:00:09.803Z,11.75
2019-04-22T10:05:07.844Z,11.60
2019-04-22T10:07:39.496Z,11.47
2019-04-22T10:10:10.848Z,8.05
2019-04-22T10:12:36.517Z,8.80
2019-04-22T10:14:59.836Z,10.70
2019-04-22T10:17:32.437Z,7.95
2019-04-22T10:20:07.199Z,9.98
2019-04-22T10:22:44.001Z,12.23
2019-04-22T10:25:08.698Z,8.63
2019-04-22T10:27:32.737Z,13.97
2019-04-22T10:30:03.032Z,11.17
2019-04-22T10:32:37.622Z,8.05
2019-04-22T10:35:05.049Z,6.67
2019-04-22T10:37:30.369Z,10.38
2019-04-22T10:40:02.938Z,6.85
2019-04-22T10:45:12.379Z,7.10
2019-04-22T10:47:42.376Z,7.42
2019-04-22T10:50:12.479Z,6.05
2019-04-22T10:52:43.509Z,7.78
2019-04-22T10:55:17.143Z,8.00
2019-04-22T10:57:46.858Z,7.58
2019-04-22T11:00:19.998Z,8.80
2019-04-22T11:02:49.735Z,8.15
2019-04-22T11:05:19.965Z,14.60
2019-04-22T11:07:53.794Z,10.40
2019-04-22T11:10:35.384Z,5.17
2019-04-22T11:12:51.496Z,14.90
2019-04-22T11:15:22.437Z,8.35
2019-04-22T11:17:51.642Z,6.33
2019-04-22T11:20:21.811Z,8.33
2019-04-22T11:22:51.136Z,10.40
2019-04-22T11:25:23.639Z,7.58
2019-04-22T11:27:53.738Z,12.07
2019-04-22T11:30:25.941Z,5.72
2019-04-22T11:32:54.206Z,8.68
2019-04-22T11:35:23.716Z,9.63
2019-04-22T11:37:56.826Z,8.38
2019-04-22T11:40:33.818Z,6.78
2019-04-22T11:42:56.581Z,7.67
2019-04-22T11:45:27.072Z,15.23
2019-04-22T11:47:57.243Z,9.43
2019-04-22T11:50:26.431Z,10.10
2019-04-22T11:52:55.333Z,5.90
2019-04-22T11:55:24.591Z,5.97
2019-04-22T11:57:54.018Z,5.78
2019-04-22T12:00:27.025Z,5.25
2019-04-22T12:02:56.763Z,7.28
2019-04-22T12:05:28.051Z,9.38
2019-04-22T12:08:15.503Z,7.20
2019-04-22T12:10:51.575Z,5.92
2019-04-22T12:13:15.823Z,5.75
2019-04-22T12:15:44.845Z,6.35
2019-04-22T12:18:15.282Z,11.90
2019-04-22T12:20:45.419Z,6.67
2019-04-22T12:23:14.806Z,6.97
2019-04-22T12:25:52.504Z,8.30
2019-04-22T12:28:15.042Z,5.17
2019-04-22T12:30:44.018Z,5.10
2019-04-22T12:33:14.771Z,6.67
2019-04-22T12:35:44.226Z,7.62
2019-04-22T12:38:16.216Z,4.25
2019-04-22T12:40:51.193Z,10.25
2019-04-22T12:43:16.147Z,9.08
2019-04-22T12:45:44.766Z,6.80
2019-04-22T12:48:14.848Z,5.92
2019-04-22T12:50:45.928Z,5.47
2019-04-22T12:53:18.027Z,6.40
2019-04-22T12:55:45.916Z,5.58
2019-04-22T12:58:15.783Z,7.03
2019-04-22T13:00:44.977Z,7.85
2019-04-22T13:03:13.909Z,8.05
2019-04-22T13:05:43.091Z,7.67
2019-04-22T13:08:11.759Z,5.95
2019-04-22T13:10:51.360Z,9.20
2019-04-22T13:13:11.299Z,7.87
2019-04-22T13:15:41.277Z,5.67
2019-04-22T13:18:20.777Z,4.80
2019-04-22T13:20:40.401Z,6.58
2019-04-22T13:23:09.503Z,5.65
2019-04-22T13:25:38.902Z,5.53
2019-04-22T13:28:11.356Z,4.15
2019-04-22T13:30:41.240Z,6.90
2019-04-22T13:33:14.672Z,5.55
2019-04-22T13:35:42.025Z,6.40
2019-04-22T13:38:11.243Z,5.20
2019-04-22T13:40:55.865Z,11.93
2019-04-22T13:43:11.115Z,4.75
2019-04-22T13:45:40.779Z,3.15
2019-04-22T13:48:29.252Z,3.08
2019-04-22T13:56:10.620Z,4.33
2019-04-22T13:58:31.549Z,4.67
2019-04-22T14:00:49.421Z,5.28
2019-04-22T14:03:37.893Z,5.30
2019-04-22T14:06:09.051Z,6.78
2019-04-22T14:08:37.656Z,6.87
2019-04-22T14:11:20.724Z,5.65
2019-04-22T14:13:37.712Z,5.58
2019-04-22T14:16:08.883Z,6.30
2019-04-22T14:18:39.023Z,3.25
2019-04-22T14:21:09.115Z,5.45
2019-04-22T14:23:38.439Z,5.17
2019-04-22T14:26:07.333Z,5.97
2019-04-22T14:28:37.368Z,6.85
2019-04-22T14:31:06.735Z,6.53
2019-04-22T14:33:36.298Z,6.55
2019-04-22T14:36:05.333Z,5.40
2019-04-22T14:38:34.722Z,3.80
2019-04-22T14:41:03.959Z,6.92
2019-04-22T14:44:00.677Z,7.33
2019-04-22T14:46:29.221Z,6.83
2019-04-22T14:48:56.046Z,6.50
2019-04-22T14:51:23.933Z,4.25
2019-04-22T14:53:50.228Z,3.10
2019-04-22T14:56:04.454Z,6.12
2019-04-22T14:58:33.181Z,7.08
2019-04-22T15:01:03.218Z,8.38
2019-04-22T15:03:31.837Z,4.72
2019-04-22T15:06:02.084Z,4.15
2019-04-22T15:08:31.092Z,6.35
2019-04-22T15:11:00.175Z,2.85
2019-04-22T15:13:29.396Z,5.83
2019-04-22T15:16:03.166Z,5.42
2019-04-22T15:18:33.631Z,3.90
2019-04-22T15:21:04.970Z,4.75
2019-04-22T15:23:34.821Z,5.12
2019-04-22T15:26:04.601Z,6.58
2019-04-22T15:28:33.476Z,4.22
2019-04-22T15:31:03.490Z,3.58
2019-04-22T15:33:33.075Z,4.03
2019-04-22T15:36:01.802Z,3.83
2019-04-22T15:38:32.274Z,5.67
2019-04-22T15:41:02.742Z,4.42
2019-04-22T15:43:35.172Z,3.33
2019-04-22T15:46:03.913Z,6.85
2019-04-22T15:48:34.110Z,6.50
2019-04-22T15:51:02.977Z,5.37
2019-04-22T15:53:31.772Z,4.97
2019-04-22T15:56:00.775Z,3.17
2019-04-22T15:58:31.171Z,3.92
2019-04-22T16:01:08.758Z,5.28
2019-04-22T16:03:30.336Z,3.15
2019-04-22T16:06:02.011Z,6.95
2019-04-22T16:08:33.408Z,7.40
2019-04-22T16:11:00.057Z,5.58
2019-04-22T16:13:32.038Z,4.92
2019-04-22T16:15:58.881Z,3.37
2019-04-22T16:18:28.410Z,6.62
2019-04-22T16:20:58.691Z,5.62
2019-04-22T16:23:44.735Z,8.58
2019-04-22T16:26:22.080Z,4.67
2019-04-22T16:28:53.749Z,7.65
2019-04-22T16:31:21.751Z,3.33
2019-04-22T16:33:50.515Z,5.97
2019-04-22T16:36:20.659Z,4.12
2019-04-22T16:38:50.859Z,8.13
2019-04-22T16:41:21.001Z,3.70
2019-04-22T16:43:50.781Z,3.70
2019-04-22T16:46:19.608Z,3.67
2019-04-22T16:48:49.570Z,4.15
2019-04-22T16:51:18.431Z,4.10
2019-04-22T16:53:47.484Z,6.62
2019-04-22T16:56:17.068Z,6.75
2019-04-22T16:58:46.538Z,6.22
2019-04-22T17:01:32.669Z,8.78
2019-04-22T17:04:14.923Z,14.47
2019-04-22T17:06:45.559Z,7.97
2019-04-22T17:09:17.429Z,4.47
2019-04-22T17:11:47.954Z,6.50
2019-04-22T17:14:23.992Z,5.35
2019-04-22T17:16:48.574Z,8.58
2019-04-22T17:19:17.713Z,7.58
2019-04-22T17:21:47.562Z,6.05
2019-04-22T17:24:17.459Z,8.25
2019-04-22T17:26:46.410Z,8.48
2019-04-22T17:29:16.626Z,6.22
2019-04-22T17:31:52.182Z,11.45
2019-04-22T17:34:15.897Z,6.17
2019-04-22T17:36:46.255Z,6.72
2019-04-22T17:39:30.234Z,10.85
2019-04-22T17:42:01.995Z,3.30
2019-04-22T17:44:58.520Z,4.28
2019-04-22T17:47:02.525Z,3.83
2019-04-22T17:49:51.060Z,4.42
2019-04-22T17:52:25.800Z,5.60
2019-04-22T17:54:50.375Z,4.83
2019-04-22T17:57:21.731Z,4.40
2019-04-22T17:59:51.817Z,11.20
2019-04-22T18:02:22.526Z,4.65
2019-04-22T18:04:46.005Z,9.90
2019-04-22T18:15:14.905Z,8.03
2019-04-22T18:17:57.042Z,7.35
2019-04-22T18:20:16.674Z,20.88
2019-04-22T18:22:38.151Z,10.65
2019-04-22T18:25:11.519Z,10.63
2019-04-22T18:27:57.354Z,13.85
2019-04-22T18:30:16.647Z,12.93
2019-04-22T18:32:52.123Z,7.15
2019-04-22T18:35:14.211Z,6.35
2019-04-22T18:37:50.002Z,15.03
2019-04-22T18:40:18.246Z,14.85
2019-04-22T18:42:55.316Z,8.73
2019-04-22T18:45:35.771Z,12.70
2019-04-22T18:47:45.581Z,4.40
2019-04-22T18:50:26.534Z,6.25
2019-04-22T18:52:54.557Z,7.10
2019-04-22T18:55:32.271Z,8.60
2019-04-22T18:58:02.958Z,6.08
2019-04-22T19:00:21.367Z,8.95
2019-04-22T19:02:55.785Z,11.40
2019-04-22T19:05:35.888Z,7.67
2019-04-22T19:08:18.325Z,9.27
2019-04-22T19:10:51.798Z,6.12
2019-04-22T19:13:49.051Z,6.08
2019-04-22T19:15:54.196Z,6.80
2019-04-22T19:18:29.115Z,8.63
2019-04-22T19:20:51.609Z,12.87
2019-04-22T19:23:20.859Z,8.65
2019-04-22T19:25:42.140Z,11.20
2019-04-22T19:28:26.921Z,9.73
2019-04-22T19:30:51.282Z,7.70
2019-04-22T19:33:18.954Z,14.73
2019-04-22T19:35:43.507Z,9.17
2019-04-22T19:38:12.197Z,9.47
2019-04-22T19:41:03.116Z,10.47
2019-04-22T19:43:22.655Z,11.57
2019-04-22T19:45:46.014Z,11.63
2019-04-22T19:48:31.003Z,12.50
2019-04-22T19:51:01.468Z,12.83
2019-04-22T19:53:26.163Z,10.43
2019-04-22T19:55:52.468Z,12.10
2019-04-22T19:58:20.089Z,8.13
2019-04-22T20:00:49.182Z,70.17
2019-04-22T20:03:50.874Z,7.40
2019-04-22T20:06:33.537Z,11.80
2019-04-22T20:09:13.875Z,7.47
2019-04-22T20:11:49.456Z,12.17
2019-04-22T20:14:43.583Z,8.40
2019-04-22T20:17:07.972Z,8.90
2019-04-22T20:19:45.908Z,15.10
2019-04-22T20:22:17.618Z,13.53
2019-04-22T20:24:43.360Z,13.87
2019-04-22T20:27:23.909Z,6.80
2019-04-22T20:29:56.369Z,9.40
2019-04-22T20:32:21.869Z,19.43
2019-04-22T20:34:57.654Z,12.17
2019-04-22T20:37:30.062Z,11.10
2019-04-22T20:39:52.491Z,7.03
2019-04-22T20:42:35.616Z,9.60
2019-04-22T20:44:56.721Z,10.23
2019-04-22T20:47:21.730Z,10.23
2019-04-22T20:50:04.486Z,10.00
2019-04-22T20:52:36.711Z,11.63
2019-04-22T20:54:54.439Z,9.70
2019-04-22T20:57:31.939Z,9.17
2019-04-22T20:59:55.631Z,12.80
2019-04-22T21:02:23.909Z,7.70
2019-04-22T21:04:49.055Z,7.37
2019-04-22T21:07:28.190Z,10.30
2019-04-22T21:09:57.785Z,8.83
2019-04-22T21:12:26.535Z,8.07
2019-04-22T21:15:10.678Z,6.73
2019-04-22T21:17:36.574Z,14.33
2019-04-22T21:20:10.469Z,10.93
2019-04-22T21:22:33.553Z,9.58
2019-04-22T21:25:03.552Z,11.47
2019-04-22T21:27:42.685Z,9.57
2019-04-22T21:29:58.612Z,7.97
2019-04-22T21:32:34.202Z,11.87
2019-04-22T21:35:16.327Z,9.57
2019-04-22T21:37:58.341Z,9.47
2019-04-22T21:40:05.237Z,11.20
2019-04-22T21:42:47.289Z,9.43
2019-04-22T21:45:07.264Z,11.40
2019-04-22T21:47:51.845Z,14.63
2019-04-22T21:50:28.200Z,14.73
2019-04-22T21:52:40.465Z,7.97
2019-04-22T21:55:16.085Z,9.90
2019-04-22T21:57:54.682Z,8.43
2019-04-22T22:00:27.767Z,8.80
2019-04-22T22:02:45.547Z,7.57
2019-04-22T22:05:12.617Z,10.53
2019-04-22T22:07:29.173Z,13.57
2019-04-22T22:10:15.036Z,11.53
2019-04-22T22:12:52.463Z,9.83
2019-04-22T22:15:23.116Z,8.60
2019-04-22T22:17:48.377Z,8.80
2019-04-22T22:20:14.631Z,7.17
2019-04-22T22:22:52.568Z,6.30
2019-04-22T22:25:21.178Z,6.63
2019-04-22T22:27:44.374Z,8.17
2019-04-22T22:30:40.099Z,16.23
2019-04-22T22:32:55.158Z,7.50
2019-04-22T22:35:20.694Z,9.50
2019-04-22T22:37:51.757Z,6.87
2019-04-22T22:40:07.511Z,10.70
2019-04-22T22:42:36.993Z,10.63
2019-04-22T22:45:13.871Z,12.60
2019-04-22T22:47:53.616Z,9.10
2019-04-22T22:50:23.316Z,7.07
2019-04-22T22:53:02.336Z,7.17
2019-04-22T22:55:22.297Z,7.40
2019-04-22T22:58:01.331Z,10.73
2019-04-22T23:00:22.506Z,7.23
2019-04-22T23:03:12.402Z,8.20
2019-04-22T23:05:33.395Z,7.30
2019-04-22T23:08:04.427Z,8.70
2019-04-22T23:10:34.128Z,12.00
2019-04-22T23:13:09.967Z,9.33
2019-04-22T23:15:27.701Z,9.67
2019-04-22T23:17:41.436Z,9.60
2019-04-22T23:20:11.733Z,8.33
2019-04-22T23:23:04.420Z,8.13
2019-04-22T23:25:33.344Z,8.93
2019-04-22T23:27:56.661Z,7.13
2019-04-22T23:30:38.285Z,8.17
2019-04-22T23:33:20.076Z,12.13
2019-04-22T23:35:52.863Z,9.10
2019-04-22T23:38:35.744Z,8.20
2019-04-22T23:41:09.321Z,9.50
2019-04-22T23:43:46.443Z,6.67
2019-04-22T23:46:08.244Z,9.57
2019-04-22T23:48:27.972Z,10.33
2019-04-22T23:51:09.236Z,9.97
2019-04-22T23:53:58.069Z,9.00
2019-04-22T23:56:07.905Z,7.60
